createdAt,value
2018-12-22T00:03:06.477Z,10.49
2018-12-22T00:08:19.664Z,10.50
2018-12-22T00:13:33.718Z,10.56
2018-12-22T00:18:47.630Z,10.63
2018-12-22T00:23:59.694Z,10.62
2018-12-22T00:29:12.648Z,10.71
2018-12-22T00:34:25.348Z,10.83
2018-12-22T00:39:38.767Z,10.84
2018-12-22T00:44:49.547Z,10.83
2018-12-22T00:47:19.794Z,10.87
2018-12-22T00:52:30.800Z,10.90
2018-12-22T00:57:44.659Z,10.92
2018-12-22T01:02:57.448Z,10.91
2018-12-22T01:08:11.359Z,11.00
2018-12-22T01:13:28.186Z,11.05
2018-12-22T01:18:41.011Z,11.12
2018-12-22T01:23:53.315Z,11.20
2018-12-22T01:29:08.775Z,11.23
2018-12-22T01:34:20.498Z,11.37
2018-12-22T01:39:34.039Z,11.41
2018-12-22T01:44:47.467Z,11.47
2018-12-22T01:50:00.951Z,11.48
2018-12-22T01:55:13.634Z,11.39
2018-12-22T02:00:35.627Z,11.42
2018-12-22T02:05:49.391Z,11.37
2018-12-22T02:11:00.930Z,11.36
2018-12-22T02:16:13.914Z,11.32
2018-12-22T02:21:50.355Z,11.40
2018-12-22T02:27:04.522Z,11.47
2018-12-22T02:32:18.403Z,11.58
2018-12-22T02:34:49.045Z,11.55
2018-12-22T02:40:02.245Z,11.53
2018-12-22T02:45:13.932Z,11.46
2018-12-22T02:50:27.053Z,11.46
2018-12-22T02:55:41.065Z,11.47
2018-12-22T03:00:52.575Z,11.39
2018-12-22T03:06:05.840Z,11.34
2018-12-22T03:11:18.389Z,11.24
2018-12-22T03:16:31.050Z,11.21
2018-12-22T03:21:43.683Z,11.25
2018-12-22T03:26:58.853Z,11.31
2018-12-22T03:32:11.043Z,11.31
2018-12-22T03:37:24.671Z,11.35
2018-12-22T03:42:36.794Z,11.17
2018-12-22T03:47:50.428Z,11.09
2018-12-22T03:53:01.974Z,11.09
2018-12-22T03:58:14.722Z,11.07
2018-12-22T04:03:26.737Z,11.09
2018-12-22T04:08:40.079Z,11.05
2018-12-22T04:13:51.816Z,11.07
2018-12-22T04:19:03.559Z,11.16
2018-12-22T04:24:16.719Z,11.14
2018-12-22T04:29:33.897Z,11.01
2018-12-22T04:34:41.546Z,10.89
2018-12-22T04:39:55.439Z,10.72
2018-12-22T04:45:08.742Z,10.58
2018-12-22T04:53:02.685Z,10.29
2018-12-22T04:55:32.613Z,10.35
2018-12-22T05:00:48.051Z,10.37
2018-12-22T05:06:01.669Z,10.30
2018-12-22T05:11:13.486Z,10.16
2018-12-22T05:16:26.596Z,10.15
2018-12-22T05:21:39.243Z,10.11
2018-12-22T05:26:51.719Z,10.19
2018-12-22T05:32:04.339Z,10.39
2018-12-22T05:37:16.808Z,10.27
2018-12-22T05:42:28.659Z,10.05
2018-12-22T05:47:41.750Z,9.87
2018-12-22T05:52:54.042Z,9.74
2018-12-22T05:58:06.784Z,9.70
2018-12-22T06:03:19.337Z,9.76
2018-12-22T06:08:32.474Z,9.85
2018-12-22T06:13:45.850Z,9.96
2018-12-22T06:18:58.969Z,10.01
2018-12-22T06:24:11.081Z,10.00
2018-12-22T06:29:27.682Z,10.10
2018-12-22T06:34:39.081Z,10.10
2018-12-22T06:39:52.715Z,10.19
2018-12-22T06:45:04.774Z,10.10
2018-12-22T06:50:17.806Z,10.13
2018-12-22T06:55:29.686Z,10.14
2018-12-22T07:00:42.741Z,10.02
2018-12-22T07:05:52.751Z,10.02
2018-12-22T07:11:04.690Z,9.99
2018-12-22T07:16:17.284Z,9.81
2018-12-22T07:21:29.754Z,9.90
2018-12-22T07:26:42.885Z,9.90
2018-12-22T07:31:55.698Z,9.88
2018-12-22T07:37:07.599Z,9.93
2018-12-22T07:42:20.400Z,10.05
2018-12-22T07:44:50.569Z,10.04
2018-12-22T07:52:42.666Z,10.13
2018-12-22T07:57:56.667Z,10.21
2018-12-22T08:03:08.826Z,10.28
2018-12-22T08:19:44.698Z,10.11
2018-12-22T08:25:06.943Z,10.26
2018-12-22T08:29:27.578Z,10.40
2018-12-22T08:34:38.704Z,10.38
2018-12-22T08:39:51.665Z,10.41
2018-12-22T08:45:03.004Z,10.40
2018-12-22T08:50:17.326Z,10.34
2018-12-22T08:55:35.639Z,10.28
2018-12-22T09:00:52.326Z,10.32
2018-12-22T09:06:03.851Z,10.34
2018-12-22T09:11:15.922Z,10.41
2018-12-22T09:16:29.653Z,10.50
2018-12-22T09:22:15.561Z,10.64
2018-12-22T09:27:28.679Z,10.76
2018-12-22T09:32:42.280Z,10.80
2018-12-22T09:37:54.550Z,10.87
2018-12-22T09:43:06.331Z,10.94
2018-12-22T09:48:21.004Z,10.96
2018-12-22T09:53:34.038Z,10.99
2018-12-22T09:58:47.344Z,11.04
2018-12-22T10:03:58.713Z,11.23
2018-12-22T10:09:12.666Z,11.21
2018-12-22T10:14:25.257Z,11.27
2018-12-22T10:19:38.692Z,11.51
2018-12-22T10:24:50.757Z,11.85
2018-12-22T10:30:03.792Z,11.67
2018-12-22T10:35:25.911Z,11.31
2018-12-22T10:39:24.035Z,11.30
2018-12-22T10:44:36.880Z,11.37
2018-12-22T10:49:50.706Z,11.31
2018-12-22T10:55:02.642Z,11.44
2018-12-22T11:00:17.676Z,11.43
2018-12-22T11:05:29.742Z,11.60
2018-12-22T11:22:40.964Z,11.41
2018-12-22T11:28:05.323Z,11.50
2018-12-22T11:33:24.034Z,11.36
2018-12-22T11:38:36.762Z,11.24
2018-12-22T11:43:48.783Z,11.34
2018-12-22T11:49:43.810Z,10.64
2018-12-22T11:54:54.537Z,10.17
2018-12-22T11:57:24.512Z,9.96
2018-12-22T12:02:36.650Z,9.65
2018-12-22T12:07:51.822Z,9.47
2018-12-22T12:13:03.836Z,9.42
2018-12-22T12:19:36.378Z,9.29
2018-12-22T12:24:48.076Z,9.18
2018-12-22T12:30:00.718Z,9.09
2018-12-22T12:35:12.828Z,8.99
2018-12-22T12:40:27.826Z,9.01
2018-12-22T12:45:42.060Z,8.96
2018-12-22T12:50:57.043Z,8.96
2018-12-22T12:56:11.671Z,8.95
2018-12-22T13:01:24.536Z,8.88
2018-12-22T13:06:39.250Z,8.84
2018-12-22T13:11:54.305Z,8.80
2018-12-22T13:17:08.805Z,8.76
2018-12-22T13:22:20.609Z,8.71
2018-12-22T13:27:33.782Z,8.65
2018-12-22T13:32:47.879Z,8.57
2018-12-22T13:38:00.800Z,8.50
2018-12-22T13:43:12.781Z,8.43
2018-12-22T13:48:26.557Z,8.27
2018-12-22T13:53:38.936Z,8.26
2018-12-22T13:58:51.757Z,8.22
2018-12-22T14:04:05.285Z,8.24
2018-12-22T14:09:23.662Z,8.22
2018-12-22T14:14:39.803Z,8.16
2018-12-22T14:20:14.031Z,8.18
2018-12-22T14:25:31.025Z,8.08
2018-12-22T14:29:53.029Z,8.10
2018-12-22T14:37:43.691Z,7.94
2018-12-22T14:42:56.033Z,7.93
2018-12-22T14:48:08.778Z,7.81
2018-12-22T14:53:20.364Z,7.90
2018-12-22T14:58:37.625Z,8.01
2018-12-22T15:04:42.743Z,8.08
2018-12-22T15:07:12.568Z,8.09
2018-12-22T15:12:24.605Z,8.06
2018-12-22T15:17:38.392Z,8.10
2018-12-22T15:22:57.821Z,8.00
2018-12-22T15:28:10.883Z,8.02
2018-12-22T15:33:23.726Z,8.10
2018-12-22T15:38:38.038Z,7.92
2018-12-22T15:43:50.756Z,7.74
2018-12-22T15:49:04.851Z,7.78
2018-12-22T15:54:16.707Z,8.01
2018-12-22T15:59:29.796Z,8.07
2018-12-22T16:04:41.797Z,8.13
2018-12-22T16:09:53.838Z,8.05
2018-12-22T16:15:06.901Z,8.04
2018-12-22T16:20:19.716Z,8.21
2018-12-22T16:25:38.422Z,8.14
2018-12-22T16:31:02.810Z,8.34
2018-12-22T16:36:14.544Z,8.23
2018-12-22T16:41:25.810Z,8.19
2018-12-22T16:46:38.683Z,8.04
2018-12-22T16:51:50.621Z,7.99
2018-12-22T16:57:03.839Z,8.06
2018-12-22T17:03:31.323Z,8.07
2018-12-22T17:08:47.850Z,8.17
2018-12-22T17:13:57.821Z,8.17
2018-12-22T17:19:10.675Z,8.10
2018-12-22T17:25:16.245Z,7.99
2018-12-22T17:30:29.363Z,7.98
2018-12-22T17:35:41.945Z,7.97
2018-12-22T17:40:54.814Z,7.94
2018-12-22T17:52:22.682Z,8.20
2018-12-22T17:57:35.829Z,8.42
2018-12-22T18:07:41.026Z,8.67
2018-12-22T18:12:55.468Z,8.76
2018-12-22T18:16:12.550Z,8.74
2018-12-22T18:21:24.787Z,8.56
2018-12-22T18:26:38.217Z,8.48
2018-12-22T18:31:49.691Z,8.33
2018-12-22T18:37:02.735Z,8.22
2018-12-22T18:42:15.591Z,8.24
2018-12-22T18:47:28.676Z,8.25
2018-12-22T18:52:40.630Z,8.25
2018-12-22T18:57:56.775Z,8.33
2018-12-22T19:03:08.036Z,8.39
2018-12-22T19:08:22.046Z,8.43
2018-12-22T19:13:40.714Z,8.58
2018-12-22T19:18:54.792Z,8.47
2018-12-22T19:24:05.924Z,8.50
2018-12-22T19:29:19.345Z,8.55
2018-12-22T19:34:30.640Z,8.56
2018-12-22T19:39:43.906Z,8.63
2018-12-22T19:44:58.802Z,8.73
2018-12-22T19:50:11.677Z,8.76
2018-12-22T19:55:23.667Z,8.93
2018-12-22T20:00:35.438Z,8.94
2018-12-22T20:12:07.821Z,9.01
2018-12-22T20:17:21.915Z,9.10
2018-12-22T20:22:33.526Z,8.98
2018-12-22T20:27:43.262Z,8.92
2018-12-22T20:32:53.793Z,8.72
2018-12-22T20:38:07.048Z,8.58
2018-12-22T20:43:18.758Z,8.76
2018-12-22T20:51:13.309Z,8.97
2018-12-22T20:56:27.078Z,8.80
2018-12-22T21:01:53.048Z,8.65
2018-12-22T21:07:06.065Z,8.62
2018-12-22T21:12:18.330Z,8.61
2018-12-22T21:17:32.049Z,8.55
2018-12-22T21:22:44.046Z,8.59
2018-12-22T21:27:58.338Z,8.59
2018-12-22T21:33:09.971Z,8.68
2018-12-22T21:38:23.659Z,8.67
2018-12-22T21:43:35.375Z,8.67
2018-12-22T21:48:49.219Z,8.58
2018-12-22T21:54:16.404Z,8.52
2018-12-22T21:59:29.898Z,8.61
2018-12-22T22:03:32.779Z,8.65
2018-12-22T22:08:45.915Z,8.62
2018-12-22T22:13:58.830Z,8.73
2018-12-22T22:19:12.495Z,8.69
2018-12-22T22:24:25.281Z,8.67
2018-12-22T22:29:38.802Z,8.58
2018-12-22T22:34:50.638Z,8.62
2018-12-22T22:40:03.746Z,8.56
2018-12-22T22:45:14.804Z,8.48
2018-12-22T22:50:29.446Z,8.46
2018-12-22T22:55:41.071Z,8.57
2018-12-22T23:00:54.543Z,8.60
2018-12-22T23:06:08.029Z,8.62
2018-12-22T23:11:20.376Z,8.55
2018-12-22T23:16:33.714Z,8.54
2018-12-22T23:21:45.057Z,8.57
2018-12-22T23:26:58.703Z,8.61
2018-12-22T23:32:10.649Z,8.54
2018-12-22T23:37:23.791Z,8.44
2018-12-22T23:42:35.761Z,8.43
2018-12-22T23:47:50.786Z,8.46
2018-12-22T23:53:03.283Z,8.41
2018-12-22T23:58:17.687Z,8.49
